Time;durP1;ratioP1;P1;durP2;ratioP2;P2;SDS_P1;SDS_P2;PMS_P1;PMS_P2;Temp;Humidity;BMP_temperature;BMP_pressure;BME280_temperature;BME280_humidity;BME280_pressure;Samples;Min_cycle;Max_cycle;Signal;HPM_P1;HPM_P2
2024/04/01 00:01:26;;;;;;;19.77;14.20;;;10.20;99.90;;;;;;4947940;28;39171;-80
2024/04/01 00:03:57;;;;;;;20.67;13.10;;;10.30;99.90;;;;;;4986905;28;37807;-80
2024/04/01 00:06:29;;;;;;;18.27;12.77;;;10.20;99.90;;;;;;4966914;28;39083;-81
2024/04/01 00:09:15;;;;;;;20.92;13.35;;;10.30;99.90;;;;;;4991495;28;38905;-80
2024/04/01 00:11:45;;;;;;;18.50;13.15;;;10.30;99.90;;;;;;4969457;28;49920;-80
2024/04/01 00:14:26;;;;;;;21.95;12.32;;;10.40;99.90;;;;;;4974083;28;39144;-80
2024/04/01 00:17:07;;;;;;;15.68;11.80;;;10.40;99.90;;;;;;4960678;28;38633;-80
2024/04/01 00:19:41;;;;;;;19.92;15.13;;;10.40;99.90;;;;;;4970041;28;50268;-79
2024/04/01 00:22:08;;;;;;;21.52;13.02;;;10.40;99.90;;;;;;4974861;28;38325;-79
2024/04/01 00:24:36;;;;;;;17.50;11.40;;;10.30;99.90;;;;;;4970823;28;38798;-80
2024/04/01 00:27:15;;;;;;;;;;;;;;;;;;;;;
2024/04/01 00:29:57;;;;;;;16.90;11.88;;;10.30;99.90;;;;;;4971028;28;37869;-78
2024/04/01 00:32:36;;;;;;;16.92;12.20;;;10.30;99.90;;;;;;4969752;28;39434;-79
2024/04/01 00:35:05;;;;;;;20.13;11.75;;;10.20;99.90;;;;;;4963930;28;38318;-79
2024/04/01 00:37:34;;;;;;;18.77;11.13;;;10.20;99.90;;;;;;4960947;28;50221;-82
2024/04/01 00:40:08;;;;;;;14.65;10.77;;;10.20;99.90;;;;;;4960733;28;37573;-80
2024/04/01 00:42:38;;;;;;;14.95;11.40;;;10.10;99.90;;;;;;4968828;28;48643;-80
2024/04/01 00:45:09;;;;;;;18.60;10.83;;;10.00;99.90;;;;;;4974160;28;37789;-81
2024/04/01 00:47:44;;;;;;;15.63;10.23;;;10.00;99.90;;;;;;4962454;28;49506;-80
2024/04/01 00:50:24;;;;;;;16.38;10.75;;;10.00;99.90;;;;;;4966179;28;39947;-81
2024/04/01 00:52:52;;;;;;;14.05;10.88;;;9.90;99.90;;;;;;4947538;28;39981;-81
2024/04/01 00:55:41;;;;;;;14.93;9.90;;;9.90;99.90;;;;;;4961430;28;38026;-80
2024/04/01 00:58:12;;;;;;;13.03;10.27;;;9.90;99.90;;;;;;4958188;28;38936;-80
2024/04/01 01:03:16;;;;;;;13.13;9.32;;;9.90;99.90;;;;;;5248144;23;20067;-78
2024/04/01 01:05:46;;;;;;;14.67;10.13;;;9.90;99.90;;;;;;4961691;28;37661;-78
2024/04/01 01:08:13;;;;;;;13.17;10.37;;;9.80;99.90;;;;;;4963656;28;37993;-78
2024/04/01 01:10:40;;;;;;;14.63;9.43;;;9.70;99.90;;;;;;4964217;28;38321;-77
2024/04/01 01:13:07;;;;;;;13.47;8.80;;;9.70;99.90;;;;;;4965705;28;38479;-77
2024/04/01 01:15:33;;;;;;;14.37;10.27;;;9.60;99.90;;;;;;4965780;28;37480;-77
2024/04/01 01:17:59;;;;;;;15.40;9.80;;;9.60;99.90;;;;;;4965969;28;36936;-77
2024/04/01 01:20:25;;;;;;;18.53;10.97;;;9.60;99.90;;;;;;4967179;28;37132;-77
2024/04/01 01:22:51;;;;;;;16.60;9.03;;;9.60;99.90;;;;;;4973209;28;40237;-77
2024/04/01 01:25:17;;;;;;;14.53;9.27;;;9.50;99.90;;;;;;4969192;28;40044;-78
2024/04/01 01:27:44;;;;;;;19.77;10.83;;;9.50;99.90;;;;;;4964386;28;37003;-78
2024/04/01 01:30:16;;;;;;;11.50;8.10;;;9.40;99.90;;;;;;4969127;28;36786;-78
2024/04/01 01:32:45;;;;;;;;;;;9.40;99.90;;;;;;4967985;28;37981;-78
2024/04/01 01:35:13;;;;;;;19.43;10.53;;;9.40;99.90;;;;;;4963862;28;38964;-78
2024/04/01 01:37:39;;;;;;;13.60;8.73;;;9.30;99.90;;;;;;4966769;28;37121;-78
2024/04/01 01:40:08;;;;;;;11.47;7.80;;;9.30;99.90;;;;;;4965425;28;36075;-78
2024/04/01 01:42:35;;;;;;;13.90;10.00;;;9.20;99.90;;;;;;4958343;28;40506;-78
2024/04/01 01:45:05;;;;;;;14.30;8.97;;;9.10;99.90;;;;;;4972571;28;38887;-77
2024/04/01 01:47:35;;;;;;;13.90;8.87;;;9.10;99.90;;;;;;4969238;28;48183;-78
2024/04/01 01:50:03;;;;;;;11.90;8.97;;;9.00;99.90;;;;;;4963631;28;38359;-78
2024/04/01 01:52:30;;;;;;;12.90;8.27;;;9.10;99.90;;;;;;4970489;28;47543;-78
2024/04/01 01:54:56;;;;;;;10.90;8.97;;;9.10;99.90;;;;;;4966183;28;37677;-77
2024/04/01 01:57:23;;;;;;;19.03;11.27;;;9.10;99.90;;;;;;4965967;28;38941;-77
2024/04/01 01:59:49;;;;;;;16.43;10.50;;;9.00;99.90;;;;;;4971845;28;35995;-77
2024/04/01 02:02:16;;;;;;;13.57;9.63;;;9.00;99.90;;;;;;4963618;28;37830;-77
2024/04/01 02:04:42;;;;;;;12.77;8.93;;;9.10;99.90;;;;;;4965943;28;37090;-77
2024/04/01 02:07:08;;;;;;;12.60;9.23;;;9.10;99.90;;;;;;4966799;28;37893;-77
2024/04/01 02:09:35;;;;;;;14.93;11.03;;;9.10;99.90;;;;;;4967349;28;37910;-77
2024/04/01 02:12:07;;;;;;;12.33;8.20;;;9.10;99.90;;;;;;4969941;28;38770;-77
2024/04/01 02:14:38;;;;;;;10.67;9.03;;;9.00;99.90;;;;;;4965968;28;39795;-78
2024/04/01 02:17:05;;;;;;;11.97;9.50;;;9.10;99.90;;;;;;4962929;28;38894;-77
2024/04/01 02:19:35;;;;;;;16.60;10.43;;;9.10;99.90;;;;;;4965148;28;38078;-76
2024/04/01 02:22:02;;;;;;;15.80;9.00;;;9.10;99.90;;;;;;4965144;28;39101;-77
2024/04/01 02:24:28;;;;;;;12.37;8.70;;;9.10;99.90;;;;;;4963988;28;39225;-77
2024/04/01 02:26:55;;;;;;;15.63;9.17;;;9.20;99.90;;;;;;4966033;28;38638;-78
2024/04/01 02:29:22;;;;;;;16.23;9.77;;;9.20;99.90;;;;;;4964876;28;38908;-77
2024/04/01 02:31:49;;;;;;;11.90;8.00;;;9.30;99.90;;;;;;4961055;28;39353;-78
2024/04/01 02:34:15;;;;;;;11.03;8.80;;;9.30;99.90;;;;;;4956995;28;42074;-78
2024/04/01 02:36:42;;;;;;;10.53;7.57;;;9.30;99.90;;;;;;4966869;28;36857;-77
2024/04/01 02:39:16;;;;;;;13.30;9.47;;;9.30;99.90;;;;;;4969171;28;37919;-77
2024/04/01 02:41:44;;;;;;;12.03;7.60;;;9.30;99.90;;;;;;4963567;28;38912;-78
2024/04/01 02:44:11;;;;;;;13.33;6.97;;;9.30;99.90;;;;;;4962554;28;40048;-78
2024/04/01 02:46:38;;;;;;;8.60;6.77;;;9.30;99.90;;;;;;4963450;28;38022;-77
2024/04/01 02:49:06;;;;;;;10.17;7.43;;;9.40;99.90;;;;;;4963219;28;37030;-77
2024/04/01 02:51:33;;;;;;;11.20;7.00;;;9.40;99.90;;;;;;4962758;28;40561;-78
2024/04/01 02:53:59;;;;;;;10.63;7.17;;;9.40;99.90;;;;;;4962102;28;38263;-77
2024/04/01 02:56:26;;;;;;;10.20;6.37;;;9.50;99.90;;;;;;4964952;28;38690;-77
2024/04/01 02:58:52;;;;;;;11.40;6.50;;;9.50;99.90;;;;;;4963906;28;37971;-77
2024/04/01 03:01:19;;;;;;;11.00;6.73;;;9.50;99.90;;;;;;4966045;28;39262;-77
2024/04/01 03:03:45;;;;;;;9.63;6.47;;;9.50;99.90;;;;;;4962105;28;39038;-78
2024/04/01 03:06:12;;;;;;;7.87;6.27;;;9.50;99.90;;;;;;4965995;28;37292;-77
2024/04/01 03:08:39;;;;;;;8.93;6.33;;;9.50;99.90;;;;;;4966167;28;36380;-77
2024/04/01 03:11:05;;;;;;;10.03;7.10;;;9.40;99.90;;;;;;4966131;28;38674;-78
2024/04/01 03:13:32;;;;;;;12.87;7.50;;;9.40;99.90;;;;;;4963591;28;37178;-78
2024/04/01 03:15:58;;;;;;;8.40;6.63;;;9.40;99.90;;;;;;4967757;28;37724;-78
2024/04/01 03:18:25;;;;;;;10.17;6.97;;;9.50;99.90;;;;;;4962805;28;37204;-78
2024/04/01 03:20:52;;;;;;;9.13;6.87;;;9.50;99.90;;;;;;4967678;28;39854;-78
2024/04/01 03:23:18;;;;;;;8.50;6.23;;;9.60;99.90;;;;;;4963960;28;38962;-78
2024/04/01 03:25:51;;;;;;;8.77;7.27;;;9.60;99.90;;;;;;4968480;28;39202;-77
2024/04/01 03:28:18;;;;;;;8.83;6.80;;;9.60;99.90;;;;;;4972748;28;36441;-78
2024/04/01 03:30:45;;;;;;;9.17;6.47;;;9.60;99.90;;;;;;4961893;28;37985;-77
2024/04/01 03:33:13;;;;;;;12.87;6.50;;;9.70;99.90;;;;;;4965407;28;39485;-76
2024/04/01 03:35:39;;;;;;;8.73;6.50;;;9.70;99.90;;;;;;4967504;28;39265;-77
2024/04/01 03:38:07;;;;;;;10.33;7.43;;;9.70;99.90;;;;;;4964739;28;36609;-77
2024/04/01 03:40:40;;;;;;;8.63;6.20;;;9.60;99.90;;;;;;4966712;28;38005;-77
2024/04/01 03:43:10;;;;;;;8.20;6.43;;;9.50;99.90;;;;;;4967029;28;38531;-77
2024/04/01 03:45:37;;;;;;;7.53;6.10;;;9.60;99.90;;;;;;4966012;28;36849;-78
2024/04/01 03:48:03;;;;;;;9.70;6.90;;;9.50;99.90;;;;;;4963665;28;36044;-77
2024/04/01 03:50:30;;;;;;;8.03;6.13;;;9.50;99.90;;;;;;4964390;28;39673;-77
2024/04/01 03:52:56;;;;;;;16.90;7.83;;;9.40;99.90;;;;;;4983983;28;37826;-78
2024/04/01 03:55:23;;;;;;;11.93;7.57;;;9.40;99.90;;;;;;4965486;28;38860;-77
2024/04/01 03:57:49;;;;;;;10.37;7.63;;;9.40;99.90;;;;;;4966773;28;37135;-78
2024/04/01 04:00:16;;;;;;;8.77;5.97;;;9.40;99.90;;;;;;4965960;28;38702;-77
2024/04/01 04:02:45;;;;;;;10.67;8.33;;;9.30;99.90;;;;;;4980043;28;39138;-78
2024/04/01 04:05:11;;;;;;;10.87;6.43;;;9.30;99.90;;;;;;4961077;28;37231;-78
2024/04/01 04:07:38;;;;;;;11.27;7.03;;;9.30;99.90;;;;;;4966135;28;37989;-78
2024/04/01 04:10:07;;;;;;;11.77;8.50;;;9.20;99.90;;;;;;4964420;28;40725;-77
2024/04/01 04:12:34;;;;;;;10.33;6.67;;;9.20;99.90;;;;;;4966097;28;38797;-78
2024/04/01 04:15:03;;;;;;;9.93;7.53;;;9.20;99.90;;;;;;4961801;28;38114;-78
2024/04/01 04:17:30;;;;;;;9.47;7.20;;;9.10;99.90;;;;;;4960404;28;38251;-79
2024/04/01 04:19:57;;;;;;;10.37;8.07;;;9.10;99.90;;;;;;4961346;28;40745;-78
2024/04/01 04:22:23;;;;;;;15.13;8.33;;;9.10;99.90;;;;;;4961852;28;37152;-78
2024/04/01 04:24:49;;;;;;;10.47;7.20;;;9.10;99.90;;;;;;4964201;28;38192;-77
2024/04/01 04:27:16;;;;;;;12.30;8.60;;;9.10;99.90;;;;;;4960353;28;37157;-78
2024/04/01 04:29:42;;;;;;;13.77;8.67;;;9.10;99.90;;;;;;4963354;28;39590;-79
2024/04/01 04:32:12;;;;;;;13.10;9.70;;;9.10;99.90;;;;;;4969488;28;38761;-77
2024/04/01 04:34:39;;;;;;;13.23;9.80;;;9.10;99.90;;;;;;4968299;28;38464;-78
2024/04/01 04:37:06;;;;;;;13.83;9.33;;;9.10;99.90;;;;;;4967922;28;36364;-78
2024/04/01 04:39:34;;;;;;;16.33;10.20;;;9.10;99.90;;;;;;4967850;28;39000;-77
2024/04/01 04:42:00;;;;;;;13.07;10.37;;;9.10;99.90;;;;;;4968866;28;38371;-77
2024/04/01 04:44:26;;;;;;;16.17;10.27;;;9.10;99.90;;;;;;4967512;28;39403;-76
2024/04/01 04:46:53;;;;;;;12.07;9.47;;;9.00;99.90;;;;;;4967978;28;38322;-77
2024/04/01 04:49:20;;;;;;;17.80;10.67;;;9.00;99.90;;;;;;4970959;28;39644;-77
2024/04/01 04:51:46;;;;;;;15.00;10.33;;;9.00;99.90;;;;;;4962237;28;38567;-78
2024/04/01 04:54:13;;;;;;;16.30;11.23;;;9.00;99.90;;;;;;4971516;28;38883;-77
2024/04/01 04:56:39;;;;;;;18.60;12.43;;;8.90;99.90;;;;;;4968451;28;38929;-78
2024/04/01 04:59:05;;;;;;;14.43;9.93;;;8.90;99.90;;;;;;4972448;28;38939;-77
2024/04/01 05:01:32;;;;;;;12.07;9.93;;;8.80;99.90;;;;;;4970202;28;39216;-77
2024/04/01 05:03:59;;;;;;;13.30;10.23;;;8.90;99.90;;;;;;4971133;28;37622;-78
2024/04/01 05:06:25;;;;;;;15.07;10.00;;;8.80;99.90;;;;;;4968517;28;37062;-78
2024/04/01 05:08:51;;;;;;;12.40;10.07;;;8.80;99.90;;;;;;4970208;28;37521;-77
2024/04/01 05:11:17;;;;;;;14.63;10.30;;;8.80;99.90;;;;;;4960555;28;38210;-77
2024/04/01 05:13:43;;;;;;;14.20;10.93;;;8.80;99.90;;;;;;4969449;28;39524;-77
2024/04/01 05:16:11;;;;;;;16.80;11.63;;;8.80;99.90;;;;;;4969828;28;37560;-77
2024/04/01 05:18:37;;;;;;;16.07;10.57;;;8.80;99.90;;;;;;4969926;28;39880;-77
2024/04/01 05:21:03;;;;;;;20.43;11.30;;;8.80;99.90;;;;;;4967932;28;38337;-77
2024/04/01 05:23:29;;;;;;;17.60;12.13;;;8.80;99.90;;;;;;4963482;28;39818;-77
2024/04/01 05:25:55;;;;;;;18.03;13.23;;;8.70;99.90;;;;;;4969124;28;37859;-77
2024/04/01 05:28:22;;;;;;;16.10;11.27;;;8.70;99.90;;;;;;4968623;28;36385;-77
2024/04/01 05:30:53;;;;;;;15.57;11.07;;;8.70;99.90;;;;;;4966643;28;38228;-78
2024/04/01 05:33:23;;;;;;;15.73;11.87;;;8.60;99.90;;;;;;4960691;28;38413;-77
2024/04/01 05:35:49;;;;;;;15.73;12.57;;;8.70;99.90;;;;;;4965463;28;37323;-77
2024/04/01 05:38:15;;;;;;;15.70;10.90;;;8.70;99.90;;;;;;4962670;28;39235;-77
2024/04/01 05:40:42;;;;;;;13.37;10.17;;;8.60;99.90;;;;;;4965749;28;39170;-78
2024/04/01 05:43:08;;;;;;;14.13;10.77;;;8.60;99.90;;;;;;4977819;28;39868;-77
2024/04/01 05:45:34;;;;;;;15.10;12.60;;;8.60;99.90;;;;;;4966497;28;37668;-78
2024/04/01 05:48:00;;;;;;;14.30;11.80;;;8.60;99.90;;;;;;4963950;28;39832;-77
2024/04/01 05:50:27;;;;;;;20.23;12.57;;;8.60;99.90;;;;;;4965661;28;47836;-77
2024/04/01 05:52:53;;;;;;;15.73;12.70;;;8.60;99.90;;;;;;4974245;28;37758;-77
2024/04/01 05:55:19;;;;;;;17.07;12.33;;;8.60;99.90;;;;;;4970621;28;36211;-77
2024/04/01 05:57:46;;;;;;;14.57;12.07;;;8.60;99.90;;;;;;4969516;28;38593;-77
2024/04/01 06:00:12;;;;;;;20.50;14.03;;;8.60;99.90;;;;;;4972942;28;37887;-78
2024/04/01 06:02:39;;;;;;;18.97;14.13;;;8.60;99.90;;;;;;4965711;28;38780;-78
2024/04/01 06:05:05;;;;;;;14.90;12.87;;;8.60;99.90;;;;;;4966694;28;38754;-79
2024/04/01 06:07:32;;;;;;;19.90;14.80;;;8.70;99.90;;;;;;4965491;28;47136;-78
2024/04/01 06:09:59;;;;;;;21.83;16.27;;;8.70;99.90;;;;;;4964520;28;37598;-78
2024/04/01 06:12:28;;;;;;;16.27;13.83;;;8.70;99.90;;;;;;4969078;28;37160;-78
2024/04/01 06:14:54;;;;;;;23.33;18.27;;;8.80;99.90;;;;;;4962150;28;37958;-78
2024/04/01 06:17:20;;;;;;;17.17;13.40;;;8.80;99.90;;;;;;4959268;28;38663;-78
2024/04/01 06:19:46;;;;;;;16.70;14.87;;;8.80;99.90;;;;;;4965791;28;38325;-78
2024/04/01 06:22:13;;;;;;;21.10;15.50;;;8.80;99.90;;;;;;4962483;28;39951;-78
2024/04/01 06:24:39;;;;;;;18.07;14.57;;;8.80;99.90;;;;;;4962210;28;36549;-78
2024/04/01 06:27:07;;;;;;;17.80;15.53;;;8.80;99.90;;;;;;4961176;28;39942;-78
2024/04/01 06:29:34;;;;;;;18.83;15.20;;;8.90;99.90;;;;;;4959386;28;37244;-77
2024/04/01 06:32:05;;;;;;;19.40;15.63;;;8.90;99.90;;;;;;4955310;28;37033;-78
2024/04/01 06:34:31;;;;;;;16.63;14.43;;;8.90;99.90;;;;;;4958922;28;47018;-77
2024/04/01 06:36:57;;;;;;;13.93;12.43;;;8.90;99.90;;;;;;4958819;28;40225;-77
2024/04/01 06:39:23;;;;;;;15.00;13.40;;;9.00;99.90;;;;;;4958173;28;39296;-78
2024/04/01 06:41:49;;;;;;;15.23;13.67;;;9.00;99.90;;;;;;4952613;28;39527;-78
2024/04/01 06:44:16;;;;;;;14.80;13.20;;;9.00;99.90;;;;;;4956719;28;36872;-77
2024/04/01 06:46:42;;;;;;;13.53;12.23;;;9.10;99.90;;;;;;4961903;28;42554;-77
2024/04/01 06:49:08;;;;;;;16.10;11.70;;;9.10;99.90;;;;;;4963305;28;39089;-77
2024/04/01 06:51:34;;;;;;;14.00;11.70;;;9.10;99.90;;;;;;4960496;28;37556;-77
2024/04/01 06:54:00;;;;;;;14.37;12.87;;;9.10;99.90;;;;;;4963355;28;37579;-79
2024/04/01 06:56:27;;;;;;;16.33;13.53;;;9.20;99.90;;;;;;4961173;28;38762;-78
2024/04/01 06:58:54;;;;;;;15.13;12.40;;;9.20;99.90;;;;;;4959779;28;38774;-78
2024/04/01 07:01:20;;;;;;;13.40;11.97;;;9.30;99.90;;;;;;4960010;28;38807;-78
2024/04/01 07:03:46;;;;;;;14.83;11.30;;;9.30;99.90;;;;;;4960411;28;39210;-78
2024/04/01 07:06:12;;;;;;;11.87;10.67;;;9.30;99.90;;;;;;4959619;28;37352;-77
2024/04/01 07:08:39;;;;;;;12.03;10.77;;;9.30;99.90;;;;;;4960399;28;35707;-78
2024/04/01 07:11:05;;;;;;;12.83;11.43;;;9.40;99.90;;;;;;4959149;28;39900;-78
2024/04/01 07:13:32;;;;;;;12.33;10.97;;;9.40;99.90;;;;;;4958644;28;38375;-78
2024/04/01 07:15:58;;;;;;;14.83;11.37;;;9.50;99.90;;;;;;4958460;28;38763;-79
2024/04/01 07:18:25;;;;;;;13.40;11.37;;;9.50;99.90;;;;;;4957452;28;37448;-78
2024/04/01 07:20:52;;;;;;;12.50;11.23;;;9.50;99.90;;;;;;4961772;28;39948;-78
2024/04/01 07:23:18;;;;;;;13.10;10.63;;;9.60;99.90;;;;;;4958500;28;37002;-78
2024/04/01 07:25:45;;;;;;;12.93;11.43;;;9.70;99.90;;;;;;4956557;28;39337;-78
2024/04/01 07:28:11;;;;;;;11.03;9.50;;;9.70;99.90;;;;;;4957049;28;38486;-79
2024/04/01 07:30:37;;;;;;;11.00;9.73;;;9.70;99.90;;;;;;4959173;28;37335;-78
2024/04/01 07:33:04;;;;;;;13.27;9.57;;;9.70;99.90;;;;;;4954299;28;38313;-78
2024/04/01 07:35:30;;;;;;;11.70;9.83;;;9.80;99.90;;;;;;4959096;28;38451;-78
2024/04/01 07:37:56;;;;;;;9.03;8.10;;;9.80;99.90;;;;;;4957315;28;39366;-78
2024/04/01 07:40:23;;;;;;;10.73;8.97;;;9.90;99.90;;;;;;4955002;28;39699;-78
2024/04/01 07:42:49;;;;;;;10.87;8.27;;;9.90;99.90;;;;;;4956896;28;37269;-78
2024/04/01 07:45:15;;;;;;;8.88;8.02;;;10.00;99.90;;;;;;4955183;28;41572;-78
2024/04/01 07:47:41;;;;;;;13.52;8.38;;;10.00;99.90;;;;;;4959764;28;39414;-78
2024/04/01 07:50:07;;;;;;;8.73;7.78;;;10.00;99.90;;;;;;4958881;28;38440;-77
2024/04/01 07:52:33;;;;;;;8.95;8.07;;;10.00;99.90;;;;;;4964504;28;38651;-79
2024/04/01 07:54:59;;;;;;;10.15;7.18;;;10.10;99.90;;;;;;4969160;28;40086;-78
2024/04/01 07:57:30;;;;;;;9.63;7.28;;;10.10;99.90;;;;;;4962897;28;38390;-76
2024/04/01 07:59:57;;;;;;;9.40;7.30;;;10.10;99.90;;;;;;4962613;28;38718;-79
2024/04/01 08:02:24;;;;;;;7.90;7.00;;;10.10;99.90;;;;;;5057861;23;37414;-81
2024/04/01 08:04:50;;;;;;;7.60;6.45;;;10.10;99.90;;;;;;4942311;28;41745;-77
2024/04/01 08:07:16;;;;;;;8.43;6.43;;;10.20;99.90;;;;;;4948985;28;36253;-77
2024/04/01 08:09:42;;;;;;;9.02;7.32;;;10.20;99.90;;;;;;4952946;28;39624;-77
2024/04/01 08:12:09;;;;;;;7.55;6.55;;;10.20;99.90;;;;;;4950437;28;37012;-77
2024/04/01 08:14:36;;;;;;;6.95;6.25;;;10.20;99.90;;;;;;4941977;28;37252;-78
2024/04/01 08:17:03;;;;;;;7.57;6.78;;;10.30;99.90;;;;;;4938788;28;39280;-78
2024/04/01 08:19:29;;;;;;;7.30;5.90;;;10.30;99.90;;;;;;4939383;28;37734;-78
2024/04/01 08:21:56;;;;;;;8.00;5.22;;;10.30;99.90;;;;;;4938203;28;37524;-78
2024/04/01 08:24:22;;;;;;;6.57;4.88;;;10.30;99.90;;;;;;4936907;28;37610;-78
2024/04/01 08:26:49;;;;;;;6.63;5.47;;;10.30;99.90;;;;;;4938454;28;38257;-79
2024/04/01 08:29:16;;;;;;;8.82;5.35;;;10.40;99.90;;;;;;4954614;28;38176;-78
2024/04/01 08:31:42;;;;;;;8.52;4.70;;;10.40;99.90;;;;;;4954652;28;36459;-77
2024/04/01 08:34:09;;;;;;;13.02;5.32;;;10.40;99.90;;;;;;4972573;23;40535;-77
2024/04/01 08:36:36;;;;;;;11.60;5.78;;;10.30;99.90;;;;;;4967119;28;38083;-78
2024/04/01 08:39:03;;;;;;;7.55;4.55;;;10.40;99.90;;;;;;4974622;28;38875;-77
2024/04/01 08:41:39;;;;;;;11.90;4.72;;;10.40;99.90;;;;;;4950090;28;38117;-78
2024/04/01 08:44:15;;;;;;;11.73;4.70;;;10.40;99.90;;;;;;4946705;28;40785;-78
2024/04/01 08:46:52;;;;;;;6.80;4.10;;;10.50;99.90;;;;;;4950633;28;36843;-78
2024/04/01 08:49:27;;;;;;;7.68;4.10;;;10.50;99.90;;;;;;4961064;28;39141;-77
2024/04/01 08:51:56;;;;;;;8.98;4.65;;;10.60;99.90;;;;;;4957885;28;37134;-77
2024/04/01 08:54:22;;;;;;;9.32;4.82;;;10.60;99.90;;;;;;4961541;28;39111;-78
2024/04/01 08:56:49;;;;;;;9.77;3.70;;;10.80;99.90;;;;;;4954680;28;38639;-78
2024/04/01 08:59:17;;;;;;;8.73;3.38;;;10.80;99.90;;;;;;4948721;28;37942;-78
2024/04/01 09:01:43;;;;;;;7.95;3.50;;;10.90;99.90;;;;;;4956966;28;37048;-78
2024/04/01 09:04:09;;;;;;;7.63;3.45;;;10.90;99.90;;;;;;4960847;28;39194;-77
2024/04/01 09:06:35;;;;;;;10.88;3.40;;;10.80;99.90;;;;;;4949440;28;37737;-77
2024/04/01 09:09:03;;;;;;;9.07;3.40;;;10.80;99.90;;;;;;4948375;28;38334;-78
2024/04/01 09:11:29;;;;;;;7.93;3.22;;;10.80;99.90;;;;;;4944148;28;38801;-78
2024/04/01 09:13:56;;;;;;;10.52;3.20;;;10.70;99.90;;;;;;4965408;28;40747;-77
2024/04/01 09:16:25;;;;;;;10.68;3.90;;;10.70;99.90;;;;;;4945601;28;39371;-77
2024/04/01 09:18:52;;;;;;;12.50;3.20;;;10.80;99.90;;;;;;4949384;28;40120;-77
2024/04/01 09:21:21;;;;;;;10.63;3.58;;;10.70;99.90;;;;;;4957310;28;38721;-76
2024/04/01 09:23:48;;;;;;;16.17;4.38;;;10.70;99.90;;;;;;4955919;28;38885;-76
2024/04/01 09:26:15;;;;;;;11.20;3.28;;;10.70;99.90;;;;;;4945315;28;37868;-76
2024/04/01 09:28:41;;;;;;;12.30;3.38;;;10.70;99.90;;;;;;4961838;28;36517;-76
2024/04/01 09:31:11;;;;;;;8.75;3.03;;;10.70;99.90;;;;;;4952935;28;37370;-76
2024/04/01 09:33:37;;;;;;;10.13;3.35;;;10.70;99.90;;;;;;4951651;28;40574;-75
2024/04/01 09:36:06;;;;;;;13.85;3.75;;;10.80;99.90;;;;;;4948563;28;36892;-76
2024/04/01 09:38:35;;;;;;;11.10;3.42;;;10.90;99.90;;;;;;4963747;28;39855;-76
2024/04/01 09:41:02;;;;;;;9.13;3.10;;;11.00;99.90;;;;;;4951977;28;35859;-77
2024/04/01 09:43:32;;;;;;;8.30;3.55;;;11.10;99.90;;;;;;4954304;28;47795;-76
2024/04/01 09:45:59;;;;;;;6.25;3.03;;;11.00;99.90;;;;;;4973375;28;38868;-76
2024/04/01 09:48:27;;;;;;;13.45;3.25;;;11.00;99.90;;;;;;4967150;28;39209;-77
2024/04/01 09:50:57;;;;;;;9.60;3.13;;;11.00;99.90;;;;;;4951862;28;37047;-77
2024/04/01 09:53:25;;;;;;;5.57;2.47;;;11.10;99.90;;;;;;4944974;28;37805;-76
2024/04/01 09:56:10;;;;;;;9.43;2.88;;;11.10;99.90;;;;;;4955489;28;38281;-76
2024/04/01 09:58:51;;;;;;;6.45;2.55;;;11.10;99.90;;;;;;4966045;28;47360;-76
2024/04/01 10:01:46;;;;;;;8.18;2.60;;;11.20;99.90;;;;;;4963445;28;40038;-76
2024/04/01 10:04:44;;;;;;;6.50;2.63;;;11.20;99.90;;;;;;4951093;28;38948;-76
2024/04/01 10:07:34;;;;;;;12.15;3.40;;;11.20;96.80;;;;;;4963002;28;38360;-78
2024/04/01 10:10:27;;;;;;;9.05;3.00;;;11.20;98.20;;;;;;4965207;28;38212;-76
2024/04/01 10:13:20;;;;;;;9.65;2.70;;;11.30;99.90;;;;;;4963211;28;47211;-76
2024/04/01 10:16:21;;;;;;;5.05;2.45;;;11.20;92.70;;;;;;4945918;28;48340;-76
2024/04/01 10:19:13;;;;;;;8.88;2.95;;;11.30;94.10;;;;;;4957589;28;47338;-77
2024/04/01 10:22:10;;;;;;;9.80;2.80;;;11.30;91.50;;;;;;4946950;28;47681;-77
2024/04/01 10:24:54;;;;;;;10.52;2.78;;;11.40;91.70;;;;;;4957423;28;47691;-77
2024/04/01 10:28:11;;;;;;;10.68;3.28;;;11.30;72.70;;;;;;4957169;28;39863;-78
2024/04/01 10:30:56;;;;;;;8.75;2.55;;;11.40;93.70;;;;;;4953225;28;47861;-77
2024/04/01 10:33:37;;;;;;;7.63;3.22;;;11.50;83.70;;;;;;4961679;28;38334;-78
2024/04/01 10:36:39;;;;;;;8.48;3.25;;;11.60;94.80;;;;;;4952193;28;37928;-78
2024/04/01 10:39:23;;;;;;;9.82;2.70;;;11.60;81.70;;;;;;4946500;28;38645;-77
2024/04/01 10:42:17;;;;;;;8.45;2.85;;;11.80;88.00;;;;;;4951056;28;38406;-77
2024/04/01 10:45:17;;;;;;;7.07;2.15;;;11.70;64.60;;;;;;4954802;28;48429;-77
2024/04/01 10:48:27;;;;;;;6.88;2.70;;;11.80;59.70;;;;;;4947208;28;48489;-76
2024/04/01 10:50:56;;;;;;;8.40;2.20;;;11.80;56.80;;;;;;4963917;28;48863;-76
2024/04/01 10:53:50;;;;;;;7.05;2.63;;;11.90;48.20;;;;;;4948946;28;38415;-77
2024/04/01 10:56:52;;;;;;;9.90;2.30;;;11.90;44.30;;;;;;4962705;28;36965;-76
2024/04/01 10:59:41;;;;;;;7.72;2.85;;;11.80;44.80;;;;;;4958348;28;36288;-76
2024/04/01 11:02:44;;;;;;;6.70;2.10;;;11.90;47.80;;;;;;4953232;28;37683;-76
2024/04/01 11:05:34;;;;;;;7.22;1.90;;;11.90;35.90;;;;;;4963204;28;38224;-77
2024/04/01 11:08:24;;;;;;;8.73;2.35;;;12.00;34.50;;;;;;4947306;28;38251;-76
2024/04/01 11:11:07;;;;;;;7.50;2.38;;;12.10;25.70;;;;;;4950094;28;48933;-76
2024/04/01 11:13:37;;;;;;;4.38;1.85;;;12.20;24.30;;;;;;4956578;28;46825;-77
2024/04/01 11:16:05;;;;;;;8.20;2.58;;;12.20;23.30;;;;;;4953284;28;39446;-77
2024/04/01 11:18:37;;;;;;;6.15;1.85;;;12.10;16.40;;;;;;4957234;28;40862;-76
2024/04/01 11:21:21;;;;;;;9.15;2.10;;;12.20;18.40;;;;;;4954000;28;37707;-77
2024/04/01 11:24:09;;;;;;;11.18;2.28;;;12.30;24.70;;;;;;4969861;28;39358;-76
2024/04/01 11:27:06;;;;;;;10.23;2.08;;;12.50;2.10;;;;;;4952914;28;49196;-77
2024/04/01 11:29:47;;;;;;;10.15;2.10;;;12.50;1.00;;;;;;4954154;28;47343;-78
2024/04/01 11:32:20;;;;;;;6.35;1.65;;;12.40;1.00;;;;;;4951950;28;36527;-77
2024/04/01 11:35:11;;;;;;;8.77;2.40;;;12.50;1.00;;;;;;4951913;28;37494;-76
2024/04/01 11:38:04;;;;;;;7.57;2.05;;;12.50;1.00;;;;;;4945507;28;47504;-77
2024/04/01 11:40:34;;;;;;;5.38;2.00;;;12.60;1.00;;;;;;4953139;28;47028;-77
2024/04/01 11:43:09;;;;;;;5.10;1.60;;;12.60;1.00;;;;;;4962418;28;38043;-77
2024/04/01 11:50:57;;;;;;;3.53;1.38;;;12.70;1.00;;;;;;4991440;23;20058;-78
2024/04/01 11:53:27;;;;;;;8.60;1.85;;;12.70;1.00;;;;;;4981761;28;38581;-79
2024/04/01 11:56:35;;;;;;;7.78;1.80;;;12.60;1.00;;;;;;4971110;28;38279;-80
2024/04/01 12:00:18;;;;;;;6.45;1.48;;;12.70;1.00;;;;;;4995439;28;50113;-81
2024/04/01 12:03:33;;;;;;;6.55;1.77;;;12.80;1.00;;;;;;4989047;28;38867;-80
2024/04/01 12:07:02;;;;;;;6.57;2.10;;;12.70;1.00;;;;;;5006624;28;37930;-80
2024/04/01 12:20:34;;;;;;;7.13;1.90;;;13.40;1.00;;;;;;5004876;28;38985;-80
2024/04/01 12:23:18;;;;;;;8.30;1.98;;;13.50;1.00;;;;;;4968839;28;40027;-80
2024/04/01 12:26:22;;;;;;;6.03;1.63;;;13.70;1.00;;;;;;4971994;28;36893;-80
2024/04/01 12:32:27;;;;;;;5.70;1.50;;;14.00;1.00;;;;;;4985593;28;38976;-82
2024/04/01 12:34:54;;;;;;;3.17;0.95;;;14.60;1.00;;;;;;4963080;28;39768;-86
2024/04/01 12:37:25;;;;;;;7.53;1.10;;;15.10;1.00;;;;;;4958164;28;40701;-86
2024/04/01 12:39:52;;;;;;;6.25;0.82;;;15.40;1.00;;;;;;4960973;28;37029;-84
2024/04/01 12:42:19;;;;;;;4.22;0.68;;;15.20;1.00;;;;;;4960915;28;37555;-84
2024/04/01 12:44:45;;;;;;;6.45;0.88;;;14.90;99.90;;;;;;4966142;28;38864;-84
2024/04/01 12:47:13;;;;;;;3.28;0.80;;;14.80;99.90;;;;;;4963280;28;37435;-85
2024/04/01 12:49:41;;;;;;;3.72;1.05;;;15.00;99.90;;;;;;4962546;28;37249;-85
2024/04/01 12:52:24;;;;;;;3.13;1.27;;;15.20;99.90;;;;;;4963580;28;36006;-89
2024/04/01 12:55:10;;;;;;;5.60;1.27;;;15.40;99.90;;;;;;4963432;28;39152;-86
2024/04/01 12:57:52;;;;;;;4.00;1.42;;;15.20;99.90;;;;;;4954324;28;47038;-83
2024/04/01 13:00:28;;;;;;;3.60;1.20;;;15.30;99.90;;;;;;4967582;28;36957;-86
2024/04/01 13:03:51;;;;;;;2.30;0.95;;;15.30;99.90;;;;;;4960348;28;47581;-85
2024/04/01 13:06:48;;;;;;;1.95;1.08;;;15.40;99.90;;;;;;4944770;28;47143;-84
2024/04/01 13:09:32;;;;;;;3.33;1.10;;;15.50;99.90;;;;;;4957236;28;37294;-85
2024/04/01 13:12:41;;;;;;;2.50;1.10;;;15.30;99.90;;;;;;4965243;28;36674;-86
2024/04/01 13:15:16;;;;;;;2.75;1.02;;;15.10;99.90;;;;;;4975077;28;47122;-83
2024/04/01 13:18:11;;;;;;;8.07;1.48;;;15.20;1.00;;;;;;4968644;28;38952;-84
2024/04/01 13:20:40;;;;;;;1.92;1.17;;;15.50;1.00;;;;;;4959411;28;48652;-87
2024/04/01 13:23:21;;;;;;;2.72;0.98;;;15.70;1.00;;;;;;4965279;28;38184;-85
2024/04/01 13:25:53;;;;;;;2.80;1.40;;;15.30;1.00;;;;;;4971941;28;36290;-86
2024/04/01 13:28:31;;;;;;;3.95;1.40;;;15.20;99.90;;;;;;4957673;28;39536;-87
2024/04/01 13:31:15;;;;;;;3.20;1.35;;;15.20;1.00;;;;;;4955645;28;37840;-82
2024/04/01 13:33:50;;;;;;;5.30;2.58;;;15.00;99.90;;;;;;4962869;28;47538;-82